PWSweather.com
Personal Weather Stations
Station Observations
KTXPLANO60
Highlands Of Russell Park, Plano, TX 75025

Highlands Of Russell ParkPlano, TX 75025

Lat: 33.10431671, Lon: -96.75176239

Elevation: 761

Station Type: Davis Wireless VP2 Plus

http://www.planoweather.com

Latest ConditionsUpdated 8:00:01 AM CDT Wednesday, Jun 26, 2019
Currently Today's Max Today's Min Today's Average
Temperature 73.7°F23.2°C 78.2°F25.7°C 71.2°F21.8°C 73.6°F23.1°C
Dew Point 68.2°F20.1°C 69.2°F20.7°C 67.1°F19.5°C 67.9°F19.9°C
Winds 6.9 mph S11.1 kmh S 11.5 mph -18.5 kmh - - 5.7 mph 9.2 kmh
Wind Gusts 10.4 mph16.7 kmh 16.1 mph25.9 kmh - -
Humidity 83% 88% 73% 83%
Pressure 30.04 in1017.3 mb 30.04 in1017.3 mb 29.94 in1013.9 mb -
Hour Temp Dew Point Humidity Winds Wind Gusts Pressure Precip Precip Rate Daily Precip Total
08:00 AM 73.7°F23.2°C 68.2°F20.1°C 83% 6.9 mph S11.1 kmh S 10.4 mph16.7 kmh 30.04 in1017.3 mb - 0.00 in0.0 mm 0.00 in0.0 mm
07:50 AM 73.1°F22.8°C 68.4°F20.2°C 85% 8.1 mph SSE13.0 kmh SSE 9.2 mph14.8 kmh 30.03 in1016.9 mb - 0.00 in0.0 mm 0.00 in0.0 mm
07:40 AM 72.6°F22.6°C 68.2°F20.1°C 86% 6.9 mph SSE11.1 kmh SSE 11.5 mph18.5 kmh 30.03 in1016.9 mb - 0.00 in0.0 mm 0.00 in0.0 mm
07:30 AM 72.2°F22.3°C 67.8°F19.9°C 86% 6.9 mph SSE11.1 kmh SSE 10.4 mph16.7 kmh 30.02 in1016.6 mb - 0.00 in0.0 mm 0.00 in0.0 mm
07:20 AM 71.9°F22.2°C 67.5°F19.7°C 86% 8.1 mph SSE13.0 kmh SSE 11.5 mph18.5 kmh 30.01 in1016.3 mb - 0.00 in0.0 mm 0.00 in0.0 mm
07:10 AM 71.6°F22.0°C 67.5°F19.7°C 87% 8.1 mph SSE13.0 kmh SSE 11.5 mph18.5 kmh 30.01 in1016.3 mb - 0.00 in0.0 mm 0.00 in0.0 mm
07:00 AM 71.3°F21.8°C 67.2°F19.6°C 87% 8.1 mph SSE13.0 kmh SSE 11.5 mph18.5 kmh 30.01 in1016.3 mb - 0.00 in0.0 mm 0.00 in0.0 mm
06:50 AM 71.2°F21.8°C 67.1°F19.5°C 87% 8.1 mph SSE13.0 kmh SSE 11.5 mph18.5 kmh 30.00 in1015.9 mb - 0.00 in0.0 mm 0.00 in0.0 mm
06:40 AM 71.2°F21.8°C 67.1°F19.5°C 87% 6.9 mph SSE11.1 kmh SSE 8.1 mph13.0 kmh 30.01 in1016.3 mb - 0.00 in0.0 mm 0.00 in0.0 mm
06:30 AM 71.2°F21.8°C 67.1°F19.5°C 87% 6.9 mph SE11.1 kmh SE 10.4 mph16.7 kmh 30.00 in1015.9 mb - 0.00 in0.0 mm 0.00 in0.0 mm
06:20 AM 71.2°F21.8°C 67.1°F19.5°C 87% 6.9 mph SE11.1 kmh SE 9.2 mph14.8 kmh 30.00 in1015.9 mb - 0.00 in0.0 mm 0.00 in0.0 mm
06:10 AM 71.2°F21.8°C 67.5°F19.7°C 88% 5.8 mph SSE9.3 kmh SSE 10.4 mph16.7 kmh 30.00 in1015.9 mb - 0.00 in0.0 mm 0.00 in0.0 mm
06:00 AM 71.3°F21.8°C 67.6°F19.8°C 88% 5.8 mph S9.3 kmh S 5.8 mph9.3 kmh 30.00 in1015.9 mb - 0.00 in0.0 mm 0.00 in0.0 mm
05:50 AM 71.3°F21.8°C 67.6°F19.8°C 88% 6.9 mph SE11.1 kmh SE 11.5 mph18.5 kmh 30.00 in1015.9 mb - 0.00 in0.0 mm 0.00 in0.0 mm
05:40 AM 71.4°F21.9°C 67.7°F19.8°C 88% 5.8 mph SE9.3 kmh SE 6.9 mph11.1 kmh 29.99 in1015.6 mb - 0.00 in0.0 mm 0.00 in0.0 mm
05:30 AM 71.5°F21.9°C 67.4°F19.7°C 87% 4.6 mph SE7.4 kmh SE 5.8 mph9.3 kmh 29.99 in1015.6 mb - 0.00 in0.0 mm 0.00 in0.0 mm
05:20 AM 71.7°F22.1°C 67.6°F19.8°C 87% 3.5 mph SE5.6 kmh SE 6.9 mph11.1 kmh 29.99 in1015.6 mb - 0.00 in0.0 mm 0.00 in0.0 mm
05:10 AM 71.7°F22.1°C 67.6°F19.8°C 87% 4.6 mph SE7.4 kmh SE 6.9 mph11.1 kmh 29.98 in1015.2 mb - 0.00 in0.0 mm 0.00 in0.0 mm
05:00 AM 71.8°F22.1°C 67.7°F19.8°C 87% 3.5 mph SSE5.6 kmh SSE 5.8 mph9.3 kmh 29.98 in1015.2 mb - 0.00 in0.0 mm 0.00 in0.0 mm
04:50 AM 71.8°F22.1°C 67.7°F19.8°C 87% 3.5 mph SSE5.6 kmh SSE 5.8 mph9.3 kmh 29.98 in1015.2 mb - 0.00 in0.0 mm 0.00 in0.0 mm
04:40 AM 71.9°F22.2°C 67.8°F19.9°C 87% 4.6 mph SE7.4 kmh SE 5.8 mph9.3 kmh 29.97 in1014.9 mb - 0.00 in0.0 mm 0.00 in0.0 mm
04:30 AM 71.9°F22.2°C 67.8°F19.9°C 87% 4.6 mph SE7.4 kmh SE 6.9 mph11.1 kmh 29.96 in1014.6 mb - 0.00 in0.0 mm 0.00 in0.0 mm
04:20 AM 72.0°F22.2°C 67.6°F19.8°C 86% 4.6 mph SSE7.4 kmh SSE 6.9 mph11.1 kmh 29.95 in1014.2 mb - 0.00 in0.0 mm 0.00 in0.0 mm
04:10 AM 72.3°F22.4°C 67.5°F19.7°C 85% Calm Calm -- 29.95 in1014.2 mb - 0.00 in0.0 mm 0.00 in0.0 mm
04:00 AM 72.5°F22.5°C 67.7°F19.8°C 85% 2.3 mph SSE3.7 kmh SSE 3.5 mph5.6 kmh 29.95 in1014.2 mb - 0.00 in0.0 mm 0.00 in0.0 mm
03:50 AM 72.7°F22.6°C 67.9°F19.9°C 85% 4.6 mph SSE7.4 kmh SSE 4.6 mph7.4 kmh 29.95 in1014.2 mb - 0.00 in0.0 mm 0.00 in0.0 mm
03:40 AM 72.9°F22.7°C 67.8°F19.9°C 84% 4.6 mph SSE7.4 kmh SSE 8.1 mph13.0 kmh 29.94 in1013.9 mb - 0.00 in0.0 mm 0.00 in0.0 mm
03:30 AM 73.0°F22.8°C 67.9°F19.9°C 84% 2.3 mph SSE3.7 kmh SSE 4.6 mph7.4 kmh 29.95 in1014.2 mb - 0.00 in0.0 mm 0.00 in0.0 mm
03:20 AM 73.1°F22.8°C 68.0°F20.0°C 84% 4.6 mph SE7.4 kmh SE 6.9 mph11.1 kmh 29.95 in1014.2 mb - 0.00 in0.0 mm 0.00 in0.0 mm
03:10 AM 73.4°F23.0°C 67.9°F19.9°C 83% 3.5 mph SSE5.6 kmh SSE 5.8 mph9.3 kmh 29.95 in1014.2 mb - 0.00 in0.0 mm 0.00 in0.0 mm
03:00 AM 73.7°F23.2°C 68.2°F20.1°C 83% 4.6 mph SSE7.4 kmh SSE 5.8 mph9.3 kmh 29.95 in1014.2 mb - 0.00 in0.0 mm 0.00 in0.0 mm
02:50 AM 73.9°F23.3°C 68.1°F20.1°C 82% 4.6 mph SSE7.4 kmh SSE 4.6 mph7.4 kmh 29.94 in1013.9 mb - 0.00 in0.0 mm 0.00 in0.0 mm
02:40 AM 74.2°F23.4°C 68.3°F20.2°C 82% 4.6 mph SE7.4 kmh SE 4.6 mph7.4 kmh 29.95 in1014.2 mb - 0.00 in0.0 mm 0.00 in0.0 mm
02:30 AM 74.5°F23.6°C 68.3°F20.2°C 81% 4.6 mph SSE7.4 kmh SSE 5.8 mph9.3 kmh 29.95 in1014.2 mb - 0.00 in0.0 mm 0.00 in0.0 mm
02:20 AM 74.7°F23.7°C 68.5°F20.3°C 81% 4.6 mph SSE7.4 kmh SSE 6.9 mph11.1 kmh 29.95 in1014.2 mb - 0.00 in0.0 mm 0.00 in0.0 mm
02:10 AM 75.0°F23.9°C 68.4°F20.2°C 80% 6.9 mph SSE11.1 kmh SSE 8.1 mph13.0 kmh 29.96 in1014.6 mb - 0.00 in0.0 mm 0.00 in0.0 mm
02:00 AM 75.3°F24.1°C 68.3°F20.2°C 79% 5.8 mph SE9.3 kmh SE 9.2 mph14.8 kmh 29.96 in1014.6 mb - 0.00 in0.0 mm 0.00 in0.0 mm
01:50 AM 75.7°F24.3°C 68.4°F20.2°C 78% 4.6 mph SE7.4 kmh SE 8.1 mph13.0 kmh 29.95 in1014.2 mb - 0.00 in0.0 mm 0.00 in0.0 mm
01:40 AM 76.0°F24.4°C 68.3°F20.2°C 77% 5.8 mph SSE9.3 kmh SSE 8.1 mph13.0 kmh 29.96 in1014.6 mb - 0.00 in0.0 mm 0.00 in0.0 mm
01:30 AM 76.3°F24.6°C 68.2°F20.1°C 76% 5.8 mph SSE9.3 kmh SSE 8.1 mph13.0 kmh 29.96 in1014.6 mb - 0.00 in0.0 mm 0.00 in0.0 mm
01:20 AM 76.6°F24.8°C 68.1°F20.1°C 75% 6.9 mph SSE11.1 kmh SSE 11.5 mph18.5 kmh 29.95 in1014.2 mb - 0.00 in0.0 mm 0.00 in0.0 mm
01:10 AM 76.9°F24.9°C 68.0°F20.0°C 74% 6.9 mph SE11.1 kmh SE 9.2 mph14.8 kmh 29.95 in1014.2 mb - 0.00 in0.0 mm 0.00 in0.0 mm
01:00 AM 77.1°F25.1°C 67.8°F19.9°C 73% 5.8 mph SE9.3 kmh SE 9.2 mph14.8 kmh 29.95 in1014.2 mb - 0.00 in0.0 mm 0.00 in0.0 mm
12:50 AM 77.3°F25.2°C 67.9°F19.9°C 73% 8.1 mph SSE13.0 kmh SSE 11.5 mph18.5 kmh 29.95 in1014.2 mb - 0.00 in0.0 mm 0.00 in0.0 mm
12:40 AM 77.5°F25.3°C 68.2°F20.1°C 73% 4.6 mph SSE7.4 kmh SSE 10.4 mph16.7 kmh 29.95 in1014.2 mb - 0.00 in0.0 mm 0.00 in0.0 mm
12:30 AM 77.7°F25.4°C 68.4°F20.2°C 73% 9.2 mph SSE14.8 kmh SSE 12.7 mph20.4 kmh 29.95 in1014.2 mb - 0.00 in0.0 mm 0.00 in0.0 mm
12:20 AM 77.9°F25.5°C 68.5°F20.3°C 73% 5.8 mph SSE9.3 kmh SSE 6.9 mph11.1 kmh 29.95 in1014.2 mb - 0.00 in0.0 mm 0.00 in0.0 mm
12:10 AM 78.0°F25.6°C 68.7°F20.4°C 73% 11.5 mph SSE18.5 kmh SSE 16.1 mph25.9 kmh 29.95 in1014.2 mb - 0.00 in0.0 mm 0.00 in0.0 mm
12:00 AM 78.2°F25.7°C 69.2°F20.7°C 74% 9.2 mph SSE14.8 kmh SSE 11.5 mph18.5 kmh 29.95 in1014.2 mb - 0.00 in0.0 mm 0.00 in0.0 mm